aviador You're here:

KGPT Decoded Metar

GULFPORT in MS, USA
Report Time2018-05-23 15:53:00
UTC Time2018-05-23 16:28:42
Flight Rules mvfr MVFR
Wind240° at 04 kt
W.Decomp.*RWY 18: 2.1 kt HW 3.4 kt RCW
RWY 32: 0.6 kt HW 4 kt LCW
W.Rank240° ranks 36
Current wind is below 240° avg. (5.0)
Visibility9999 m
Phenomena:N/A
Clouds:Broken 028 Hf
Expected CloudBase > 2,400 ft AGL from Temp-Dew spread
Ceiling2,800 ft
Temp29°C (ISA +14)
Dew Point23°C (70% RH)
Heat Index32.7°C
QNH1018 hPa
Density Alt1,867 ft
Elevation46 ft
Report Wrong Elevation
Raw Report
KGPT 231553Z 24004KT 10SM BKN028 29/23 A3007 RMK AO2 LTG DSNT SW
TSB10E14 SLP183 T02890228=

Extra information for KGPT:More info

Metar Taf Metar & Taf Last 4 Metars F.Rules Stats Wind Profile Meteogram Temp Stats Airport Information Weather charts Add Link Nearby VenuesMetar ALERT Operation Metar Decoded Social comments

AIRNAV info for KGPT